sensor_id;sensor_type;location;lat;lon;timestamp;pressure;altitude;pressure_sealevel;temperature;humidity
33949;BME280;20229;49.856;19.030;2023-04-28T00:04:47;102071.87;;;4.47;65.00
33949;BME280;20229;49.856;19.030;2023-04-28T00:10:04;102068.28;;;4.46;65.31
33949;BME280;20229;49.856;19.030;2023-04-28T00:15:18;102065.55;;;4.48;65.26
33949;BME280;20229;49.856;19.030;2023-04-28T00:20:33;102073.67;;;4.45;65.14
33949;BME280;20229;49.856;19.030;2023-04-28T00:25:53;102071.89;;;4.44;64.96
33949;BME280;20229;49.856;19.030;2023-04-28T00:31:12;102072.84;;;4.40;65.57
33949;BME280;20229;49.856;19.030;2023-04-28T00:36:26;102071.05;;;4.37;65.01
33949;BME280;20229;49.856;19.030;2023-04-28T00:41:45;102059.40;;;4.32;65.93
33949;BME280;20229;49.856;19.030;2023-04-28T00:47:00;102057.60;;;4.29;65.57
33949;BME280;20229;49.856;19.030;2023-04-28T00:52:15;102060.34;;;4.26;65.84
33949;BME280;20229;49.856;19.030;2023-04-28T00:57:30;102064.87;;;4.23;65.31
33949;BME280;20229;49.856;19.030;2023-04-28T01:02:45;102067.63;;;4.18;65.43
33949;BME280;20229;49.856;19.030;2023-04-28T01:07:59;102069.42;;;4.16;65.76
33949;BME280;20229;49.856;19.030;2023-04-28T01:13:13;102082.10;;;4.11;65.78
33949;BME280;20229;49.856;19.030;2023-04-28T01:18:26;102083.91;;;4.09;65.97
33949;BME280;20229;49.856;19.030;2023-04-28T01:23:44;102080.34;;;4.02;66.39
33949;BME280;20229;49.856;19.030;2023-04-28T01:28:58;102079.47;;;3.99;66.50
33949;BME280;20229;49.856;19.030;2023-04-28T01:34:12;102075.88;;;3.95;66.93
33949;BME280;20229;49.856;19.030;2023-04-28T01:39:26;102077.72;;;3.93;66.58
33949;BME280;20229;49.856;19.030;2023-04-28T01:44:40;102069.63;;;3.89;66.79
33949;BME280;20229;49.856;19.030;2023-04-28T01:49:53;102075.95;;;3.88;67.05
33949;BME280;20229;49.856;19.030;2023-04-28T01:55:08;102071.48;;;3.83;66.33
33949;BME280;20229;49.856;19.030;2023-04-28T02:00:22;102072.37;;;3.84;66.17
33949;BME280;20229;49.856;19.030;2023-04-28T02:05:36;102067.93;;;3.78;67.29
33949;BME280;20229;49.856;19.030;2023-04-28T02:10:50;102068.82;;;3.77;66.68
33949;BME280;20229;49.856;19.030;2023-04-28T02:16:05;102072.45;;;3.73;66.55
33949;BME280;20229;49.856;19.030;2023-04-28T02:21:19;102073.37;;;3.72;66.90
33949;BME280;20229;49.856;19.030;2023-04-28T02:26:33;102064.38;;;3.67;67.05
33949;BME280;20229;49.856;19.030;2023-04-28T02:31:48;102064.41;;;3.63;68.45
33949;BME280;20229;49.856;19.030;2023-04-28T02:37:01;102064.45;;;3.58;67.98
33949;BME280;20229;49.856;19.030;2023-04-28T02:42:15;102066.26;;;3.53;67.89
33949;BME280;20229;49.856;19.030;2023-04-28T02:47:30;102057.30;;;3.48;68.24
33949;BME280;20229;49.856;19.030;2023-04-28T02:52:43;102050.13;;;3.47;68.05
33949;BME280;20229;49.856;19.030;2023-04-28T02:57:58;102053.70;;;3.46;67.90
33949;BME280;20229;49.856;19.030;2023-04-28T03:03:12;102057.32;;;3.45;67.87
33949;BME280;20229;49.856;19.030;2023-04-28T03:08:25;102051.02;;;3.43;68.55
33949;BME280;20229;49.856;19.030;2023-04-28T03:13:39;102055.55;;;3.41;67.90
33949;BME280;20229;49.856;19.030;2023-04-28T03:18:53;102055.55;;;3.41;68.12
33949;BME280;20229;49.856;19.030;2023-04-28T03:24:08;102057.33;;;3.42;68.07
33949;BME280;20229;49.856;19.030;2023-04-28T03:29:22;102053.77;;;3.37;68.69
33949;BME280;20229;49.856;19.030;2023-04-28T03:34:38;102051.08;;;3.37;67.99
33949;BME280;20229;49.856;19.030;2023-04-28T03:39:57;102060.96;;;3.38;68.75
33949;BME280;20229;49.856;19.030;2023-04-28T03:45:11;102054.63;;;3.42;68.85
33949;BME280;20229;49.856;19.030;2023-04-28T03:50:25;102042.93;;;3.44;68.78
33949;BME280;20229;49.856;19.030;2023-04-28T03:55:38;102041.95;;;3.53;68.29
33949;BME280;20229;49.856;19.030;2023-04-28T04:00:54;102034.73;;;3.61;68.03
33949;BME280;20229;49.856;19.030;2023-04-28T04:06:07;102047.25;;;3.73;68.28
33949;BME280;20229;49.856;19.030;2023-04-28T04:11:21;102039.95;;;3.84;67.60
33949;BME280;20229;49.856;19.030;2023-04-28T04:16:35;102040.77;;;4.00;67.36
33949;BME280;20229;49.856;19.030;2023-04-28T04:21:49;102045.12;;;4.13;67.40
33949;BME280;20229;49.856;19.030;2023-04-28T04:27:03;102045.04;;;4.25;66.74
33949;BME280;20229;49.856;19.030;2023-04-28T04:32:18;102047.59;;;4.41;66.28
33949;BME280;20229;49.856;19.030;2023-04-28T04:37:32;102047.39;;;4.59;65.77
33949;BME280;20229;49.856;19.030;2023-04-28T04:42:46;102044.55;;;4.73;65.47
33949;BME280;20229;49.856;19.030;2023-04-28T04:48:01;102045.29;;;4.89;65.19
33949;BME280;20229;49.856;19.030;2023-04-28T04:53:14;102042.28;;;5.12;64.89
33949;BME280;20229;49.856;19.030;2023-04-28T04:58:28;102040.73;;;5.60;63.38
33949;BME280;20229;49.856;19.030;2023-04-28T05:03:44;102038.05;;;6.17;62.60
33949;BME280;20229;49.856;19.030;2023-04-28T05:08:59;102029.77;;;6.75;60.70
33949;BME280;20229;49.856;19.030;2023-04-28T05:14:13;102028.59;;;7.33;59.32
33949;BME280;20229;49.856;19.030;2023-04-28T05:19:28;102038.47;;;7.76;57.92
33949;BME280;20229;49.856;19.030;2023-04-28T05:24:42;102034.15;;;8.04;57.12
33949;BME280;20229;49.856;19.030;2023-04-28T05:29:56;102030.89;;;8.26;56.28
33949;BME280;20229;49.856;19.030;2023-04-28T05:35:10;102031.15;;;8.52;55.53
33949;BME280;20229;49.856;19.030;2023-04-28T05:40:24;102032.02;;;8.87;55.04
33949;BME280;20229;49.856;19.030;2023-04-28T05:45:39;102030.77;;;9.30;54.78
33949;BME280;20229;49.856;19.030;2023-04-28T05:50:53;102035.70;;;10.31;52.27
33949;BME280;20229;49.856;19.030;2023-04-28T05:56:07;102021.26;;;11.75;50.52
33949;BME280;20229;49.856;19.030;2023-04-28T06:01:21;102023.40;;;13.55;46.63
33949;BME280;20229;49.856;19.030;2023-04-28T06:06:36;102031.70;;;14.98;41.88
33949;BME280;20229;49.856;19.030;2023-04-28T06:11:50;102012.27;;;15.35;40.20
33949;BME280;20229;49.856;19.030;2023-04-28T06:17:04;102017.10;;;17.16;38.70
33949;BME280;20229;49.856;19.030;2023-04-28T06:22:19;102021.66;;;18.43;36.64
33949;BME280;20229;49.856;19.030;2023-04-28T06:27:33;102005.46;;;20.28;33.61
33949;BME280;20229;49.856;19.030;2023-04-28T06:32:46;101991.25;;;22.05;32.53
33949;BME280;20229;49.856;19.030;2023-04-28T06:38:01;101985.36;;;23.46;29.59
33949;BME280;20229;49.856;19.030;2023-04-28T06:43:18;101997.27;;;24.29;25.35
33949;BME280;20229;49.856;19.030;2023-04-28T06:48:32;101991.83;;;24.37;27.95
33949;BME280;20229;49.856;19.030;2023-04-28T06:53:46;101990.36;;;25.01;26.73
33949;BME280;20229;49.856;19.030;2023-04-28T06:58:59;101983.70;;;25.68;24.79
33949;BME280;20229;49.856;19.030;2023-04-28T07:04:13;101990.65;;;26.65;23.44
33949;BME280;20229;49.856;19.030;2023-04-28T07:09:28;101985.80;;;27.37;23.94
33949;BME280;20229;49.856;19.030;2023-04-28T07:14:42;101970.34;;;28.60;23.88
33949;BME280;20229;49.856;19.030;2023-04-28T07:19:56;101959.56;;;30.32;23.12
33949;BME280;20229;49.856;19.030;2023-04-28T07:25:09;101956.80;;;31.75;20.42
33949;BME280;20229;49.856;19.030;2023-04-28T07:30:24;101952.27;;;32.90;19.19
33949;BME280;20229;49.856;19.030;2023-04-28T07:35:38;101945.74;;;34.15;18.69
33949;BME280;20229;49.856;19.030;2023-04-28T07:40:52;101939.27;;;34.41;16.96
33949;BME280;20229;49.856;19.030;2023-04-28T07:46:06;101939.35;;;34.94;17.15
33949;BME280;20229;49.856;19.030;2023-04-28T07:51:20;101933.02;;;35.25;16.39
33949;BME280;20229;49.856;19.030;2023-04-28T07:56:34;101922.93;;;35.62;13.80
33949;BME280;20229;49.856;19.030;2023-04-28T08:01:48;101928.98;;;36.31;15.27
33949;BME280;20229;49.856;19.030;2023-04-28T08:07:03;101919.23;;;37.08;14.12
33949;BME280;20229;49.856;19.030;2023-04-28T08:12:17;101905.08;;;36.95;11.69
33949;BME280;20229;49.856;19.030;2023-04-28T08:17:31;101905.45;;;37.49;14.14
33949;BME280;20229;49.856;19.030;2023-04-28T08:22:45;101907.48;;;38.15;13.06
33949;BME280;20229;49.856;19.030;2023-04-28T08:27:59;101910.76;;;38.61;12.89
33949;BME280;20229;49.856;19.030;2023-04-28T08:33:15;101902.84;;;38.63;12.56
33949;BME280;20229;49.856;19.030;2023-04-28T08:38:29;101880.45;;;37.69;13.59
33949;BME280;20229;49.856;19.030;2023-04-28T08:43:42;101879.98;;;34.66;16.07
33949;BME280;20229;49.856;19.030;2023-04-28T08:48:59;101872.48;;;32.23;16.61
33949;BME280;20229;49.856;19.030;2023-04-28T08:54:14;101876.58;;;30.58;17.32
33949;BME280;20229;49.856;19.030;2023-04-28T08:59:33;101869.85;;;29.03;18.08
33949;BME280;20229;49.856;19.030;2023-04-28T09:04:47;101865.27;;;28.12;18.01
33949;BME280;20229;49.856;19.030;2023-04-28T09:10:14;101864.47;;;27.27;19.31
33949;BME280;20229;49.856;19.030;2023-04-28T09:15:31;101864.60;;;26.91;20.49
33949;BME280;20229;49.856;19.030;2023-04-28T09:20:46;101845.47;;;26.60;20.81
33949;BME280;20229;49.856;19.030;2023-04-28T09:26:06;101846.56;;;26.06;21.40
33949;BME280;20229;49.856;19.030;2023-04-28T09:33:32;101842.42;;;25.09;22.24
33949;BME280;20229;49.856;19.030;2023-04-28T09:38:59;101837.45;;;25.03;23.31
33949;BME280;20229;49.856;19.030;2023-04-28T09:44:17;101829.48;;;24.71;23.32
33949;BME280;20229;49.856;19.030;2023-04-28T09:49:31;101823.49;;;24.27;24.05
33949;BME280;20229;49.856;19.030;2023-04-28T09:54:49;101824.09;;;24.50;23.75
33949;BME280;20229;49.856;19.030;2023-04-28T10:00:05;101807.63;;;24.27;22.82
33949;BME280;20229;49.856;19.030;2023-04-28T10:05:21;101796.21;;;24.01;22.83
33949;BME280;20229;49.856;19.030;2023-04-28T10:10:36;101787.88;;;23.82;23.22
33949;BME280;20229;49.856;19.030;2023-04-28T10:15:52;101780.61;;;23.60;23.41
33949;BME280;20229;49.856;19.030;2023-04-28T10:21:11;101774.98;;;23.21;24.81
33949;BME280;20229;49.856;19.030;2023-04-28T10:26:56;101764.08;;;22.99;23.52
33949;BME280;20229;49.856;19.030;2023-04-28T10:42:51;101753.95;;;22.67;25.27
33949;BME280;20229;49.856;19.030;2023-04-28T10:48:06;101741.79;;;22.68;25.01
33949;BME280;20229;49.856;19.030;2023-04-28T10:53:19;101725.74;;;22.51;23.86
33949;BME280;20229;49.856;19.030;2023-04-28T10:58:34;101724.37;;;22.35;24.79
33949;BME280;20229;49.856;19.030;2023-04-28T11:09:48;101717.51;;;21.98;25.85
33949;BME280;20229;49.856;19.030;2023-04-28T11:15:11;101713.59;;;21.79;27.00
33949;BME280;20229;49.856;19.030;2023-04-28T11:20:27;101695.42;;;21.75;27.44
33949;BME280;20229;49.856;19.030;2023-04-28T11:31:15;101685.48;;;21.40;26.89
33949;BME280;20229;49.856;19.030;2023-04-28T11:36:38;101684.37;;;21.64;27.65
33949;BME280;20229;49.856;19.030;2023-04-28T11:41:54;101683.21;;;21.45;26.57
33949;BME280;20229;49.856;19.030;2023-04-28T11:47:08;101669.35;;;21.34;27.02
33949;BME280;20229;49.856;19.030;2023-04-28T11:52:23;101673.20;;;21.11;27.95
33949;BME280;20229;49.856;19.030;2023-04-28T11:57:39;101668.35;;;21.35;27.79
33949;BME280;20229;49.856;19.030;2023-04-28T12:02:53;101663.97;;;21.54;28.59
33949;BME280;20229;49.856;19.030;2023-04-28T12:08:07;101653.31;;;21.59;26.29
33949;BME280;20229;49.856;19.030;2023-04-28T12:13:22;101651.43;;;21.38;28.88
33949;BME280;20229;49.856;19.030;2023-04-28T12:18:36;101634.43;;;21.53;28.42
33949;BME280;20229;49.856;19.030;2023-04-28T12:23:51;101637.81;;;21.77;27.80
33949;BME280;20229;49.856;19.030;2023-04-28T12:29:05;101614.41;;;22.10;26.92
33949;BME280;20229;49.856;19.030;2023-04-28T12:34:19;101601.24;;;22.43;25.88
33949;BME280;20229;49.856;19.030;2023-04-28T12:39:35;101594.49;;;22.36;26.89
33949;BME280;20229;49.856;19.030;2023-04-28T12:44:50;101598.73;;;22.30;25.04
33949;BME280;20229;49.856;19.030;2023-04-28T12:50:05;101578.22;;;22.01;27.34
33949;BME280;20229;49.856;19.030;2023-04-28T12:55:19;101577.95;;;22.04;27.75
33949;BME280;20229;49.856;19.030;2023-04-28T13:00:33;101574.34;;;21.82;27.55
33949;BME280;20229;49.856;19.030;2023-04-28T13:05:50;101563.74;;;21.66;27.23
33949;BME280;20229;49.856;19.030;2023-04-28T13:11:05;101556.06;;;21.59;27.00
33949;BME280;20229;49.856;19.030;2023-04-28T13:16:19;101553.95;;;21.41;26.98
33949;BME280;20229;49.856;19.030;2023-04-28T13:21:33;101547.00;;;21.57;27.00
33949;BME280;20229;49.856;19.030;2023-04-28T13:26:48;101544.07;;;21.58;26.36
33949;BME280;20229;49.856;19.030;2023-04-28T13:32:02;101530.70;;;21.42;26.21
33949;BME280;20229;49.856;19.030;2023-04-28T13:37:17;101519.16;;;21.47;26.92
33949;BME280;20229;49.856;19.030;2023-04-28T13:42:34;101518.79;;;21.61;28.00
33949;BME280;20229;49.856;19.030;2023-04-28T13:47:48;101518.79;;;21.61;28.26
33949;BME280;20229;49.856;19.030;2023-04-28T13:53:03;101517.59;;;21.33;27.44
33949;BME280;20229;49.856;19.030;2023-04-28T13:58:16;101520.61;;;21.41;27.97
33949;BME280;20229;49.856;19.030;2023-04-28T14:03:30;101504.21;;;21.38;27.02
33949;BME280;20229;49.856;19.030;2023-04-28T14:08:45;101507.30;;;21.24;27.49
33949;BME280;20229;49.856;19.030;2023-04-28T14:13:59;101500.04;;;21.33;27.92
33949;BME280;20229;49.856;19.030;2023-04-28T14:19:13;101495.47;;;21.74;27.38
33949;BME280;20229;49.856;19.030;2023-04-28T14:24:30;101487.34;;;22.01;27.42
33949;BME280;20229;49.856;19.030;2023-04-28T14:29:46;101492.82;;;22.12;27.37
33949;BME280;20229;49.856;19.030;2023-04-28T14:35:01;101488.09;;;22.03;26.94
33949;BME280;20229;49.856;19.030;2023-04-28T14:40:18;101480.98;;;21.70;26.07
33949;BME280;20229;49.856;19.030;2023-04-28T14:45:35;101475.86;;;21.44;26.79
33949;BME280;20229;49.856;19.030;2023-04-28T14:50:50;101479.06;;;21.40;28.14
33949;BME280;20229;49.856;19.030;2023-04-28T14:56:06;101472.81;;;21.27;28.23
33949;BME280;20229;49.856;19.030;2023-04-28T15:01:20;101475.95;;;21.12;28.11
33949;BME280;20229;49.856;19.030;2023-04-28T15:06:35;101467.95;;;21.19;26.86
33949;BME280;20229;49.856;19.030;2023-04-28T15:11:50;101475.85;;;21.23;28.56
33949;BME280;20229;49.856;19.030;2023-04-28T15:17:04;101474.37;;;21.40;28.37
33949;BME280;20229;49.856;19.030;2023-04-28T15:22:18;101466.59;;;21.34;27.71
33949;BME280;20229;49.856;19.030;2023-04-28T15:27:32;101464.44;;;21.17;28.70
33949;BME280;20229;49.856;19.030;2023-04-28T15:32:48;101461.26;;;21.00;29.21
33949;BME280;20229;49.856;19.030;2023-04-28T15:38:02;101464.19;;;20.78;29.69
33949;BME280;20229;49.856;19.030;2023-04-28T15:43:16;101458.95;;;20.64;30.41
33949;BME280;20229;49.856;19.030;2023-04-28T15:48:31;101451.18;;;20.46;30.59
33949;BME280;20229;49.856;19.030;2023-04-28T15:53:45;101442.00;;;20.35;30.10
33949;BME280;20229;49.856;19.030;2023-04-28T15:59:00;101436.10;;;20.28;30.93
33949;BME280;20229;49.856;19.030;2023-04-28T16:04:13;101429.62;;;20.18;30.61
33949;BME280;20229;49.856;19.030;2023-04-28T16:09:28;101432.29;;;20.08;30.98
33949;BME280;20229;49.856;19.030;2023-04-28T16:14:42;101430.45;;;19.86;31.08
33949;BME280;20229;49.856;19.030;2023-04-28T16:19:55;101447.86;;;19.66;32.18
33949;BME280;20229;49.856;19.030;2023-04-28T16:25:10;101448.45;;;19.35;31.46
33949;BME280;20229;49.856;19.030;2023-04-28T16:30:24;101451.21;;;19.13;33.41
33949;BME280;20229;49.856;19.030;2023-04-28T16:35:40;101449.29;;;18.91;33.44
33949;BME280;20229;49.856;19.030;2023-04-28T16:40:54;101432.82;;;18.66;34.34
33949;BME280;20229;49.856;19.030;2023-04-28T16:46:08;101440.45;;;18.51;33.80
33949;BME280;20229;49.856;19.030;2023-04-28T16:51:22;101432.75;;;18.43;32.35
33949;BME280;20229;49.856;19.030;2023-04-28T16:56:36;101434.13;;;18.37;33.40
33949;BME280;20229;49.856;19.030;2023-04-28T17:01:51;101440.13;;;18.31;33.23
33949;BME280;20229;49.856;19.030;2023-04-28T17:07:05;101441.55;;;18.13;34.50
33949;BME280;20229;49.856;19.030;2023-04-28T17:12:19;101439.61;;;18.02;34.15
33949;BME280;20229;49.856;19.030;2023-04-28T17:17:35;101436.46;;;17.83;34.39
33949;BME280;20229;49.856;19.030;2023-04-28T17:22:50;101433.30;;;17.63;34.16
33949;BME280;20229;49.856;19.030;2023-04-28T17:28:05;101435.12;;;17.39;34.17
33949;BME280;20229;49.856;19.030;2023-04-28T17:33:19;101434.68;;;17.19;35.65
33949;BME280;20229;49.856;19.030;2023-04-28T17:38:37;101432.48;;;16.99;35.65
33949;BME280;20229;49.856;19.030;2023-04-28T17:43:50;101434.13;;;16.89;36.74
33949;BME280;20229;49.856;19.030;2023-04-28T17:49:04;101438.07;;;16.72;37.64
33949;BME280;20229;49.856;19.030;2023-04-28T17:54:18;101440.13;;;16.56;38.03
33949;BME280;20229;49.856;19.030;2023-04-28T17:59:32;101435.03;;;16.37;38.55
33949;BME280;20229;49.856;19.030;2023-04-28T18:04:46;101438.05;;;16.19;40.17
33949;BME280;20229;49.856;19.030;2023-04-28T18:10:03;101437.52;;;16.00;39.94
33949;BME280;20229;49.856;19.030;2023-04-28T18:15:17;101439.56;;;15.84;40.63
33949;BME280;20229;49.856;19.030;2023-04-28T18:20:31;101448.09;;;15.65;40.94
33949;BME280;20229;49.856;19.030;2023-04-28T18:25:45;101440.37;;;15.43;42.66
33949;BME280;20229;49.856;19.030;2023-04-28T18:31:03;101453.15;;;15.29;41.75
33949;BME280;20229;49.856;19.030;2023-04-28T18:36:17;101451.40;;;15.14;43.58
33949;BME280;20229;49.856;19.030;2023-04-28T18:46:54;101456.27;;;14.80;43.48
33949;BME280;20229;49.856;19.030;2023-04-28T18:52:07;101462.53;;;14.68;45.23
33949;BME280;20229;49.856;19.030;2023-04-28T18:57:21;101466.82;;;14.58;45.20
33949;BME280;20229;49.856;19.030;2023-04-28T19:02:35;101464.88;;;14.44;45.75
33949;BME280;20229;49.856;19.030;2023-04-28T19:07:48;101468.96;;;14.37;46.38
33949;BME280;20229;49.856;19.030;2023-04-28T19:13:03;101466.50;;;14.32;45.64
33949;BME280;20229;49.856;19.030;2023-04-28T19:18:17;101468.55;;;14.29;45.79
33949;BME280;20229;49.856;19.030;2023-04-28T19:23:31;101469.02;;;14.21;46.45
33949;BME280;20229;49.856;19.030;2023-04-28T19:28:46;101463.19;;;14.11;47.45
33949;BME280;20229;49.856;19.030;2023-04-28T19:33:59;101461.78;;;14.04;47.83
33949;BME280;20229;49.856;19.030;2023-04-28T19:39:14;101457.52;;;13.99;47.53
33949;BME280;20229;49.856;19.030;2023-04-28T19:44:29;101455.93;;;13.95;47.21
33949;BME280;20229;49.856;19.030;2023-04-28T19:49:44;101462.74;;;13.87;48.27
33949;BME280;20229;49.856;19.030;2023-04-28T19:54:59;101457.82;;;13.78;47.93
33949;BME280;20229;49.856;19.030;2023-04-28T20:00:14;101456.13;;;13.76;46.42
33949;BME280;20229;49.856;19.030;2023-04-28T20:05:28;101456.20;;;13.74;46.52
33949;BME280;20229;49.856;19.030;2023-04-28T20:10:41;101449.77;;;13.75;45.80
33949;BME280;20229;49.856;19.030;2023-04-28T20:15:55;101444.45;;;13.72;46.42
33949;BME280;20229;49.856;19.030;2023-04-28T20:21:11;101442.68;;;13.71;45.46
33949;BME280;20229;49.856;19.030;2023-04-28T20:26:25;101436.66;;;13.65;46.17
33949;BME280;20229;49.856;19.030;2023-04-28T20:31:38;101441.45;;;13.61;46.00
33949;BME280;20229;49.856;19.030;2023-04-28T20:36:53;101432.74;;;13.53;45.94
33949;BME280;20229;49.856;19.030;2023-04-28T20:42:07;101438.41;;;13.50;45.86
33949;BME280;20229;49.856;19.030;2023-04-28T20:47:20;101446.63;;;13.50;45.51
33949;BME280;20229;49.856;19.030;2023-04-28T20:52:36;101435.93;;;13.45;45.48
33949;BME280;20229;49.856;19.030;2023-04-28T20:57:50;101433.63;;;13.37;46.35
33949;BME280;20229;49.856;19.030;2023-04-28T21:03:03;101433.80;;;13.34;46.35
33949;BME280;20229;49.856;19.030;2023-04-28T21:08:17;101439.82;;;13.25;46.98
33949;BME280;20229;49.856;19.030;2023-04-28T21:13:31;101435.85;;;13.13;48.40
33949;BME280;20229;49.856;19.030;2023-04-28T21:18:45;101443.16;;;12.97;49.29
33949;BME280;20229;49.856;19.030;2023-04-28T21:24:00;101429.23;;;12.84;47.88
33949;BME280;20229;49.856;19.030;2023-04-28T21:29:14;101433.27;;;12.77;49.02
33949;BME280;20229;49.856;19.030;2023-04-28T21:34:30;101427.08;;;12.74;48.71
33949;BME280;20229;49.856;19.030;2023-04-28T21:39:46;101430.08;;;12.69;48.00
33949;BME280;20229;49.856;19.030;2023-04-28T21:45:00;101429.36;;;12.65;49.38
33949;BME280;20229;49.856;19.030;2023-04-28T21:50:14;101422.49;;;12.57;49.59
33949;BME280;20229;49.856;19.030;2023-04-28T21:55:29;101421.72;;;12.55;51.10
33949;BME280;20229;49.856;19.030;2023-04-28T22:00:44;101420.08;;;12.51;51.32
33949;BME280;20229;49.856;19.030;2023-04-28T22:06:01;101418.32;;;12.50;51.26
33949;BME280;20229;49.856;19.030;2023-04-28T22:11:15;101413.98;;;12.46;52.02
33949;BME280;20229;49.856;19.030;2023-04-28T22:16:29;101403.12;;;12.44;51.84
33949;BME280;20229;49.856;19.030;2023-04-28T22:21:43;101404.16;;;12.41;52.50
33949;BME280;20229;49.856;19.030;2023-04-28T22:26:58;101391.45;;;12.40;54.01
33949;BME280;20229;49.856;19.030;2023-04-28T22:32:12;101387.07;;;12.36;53.78
33949;BME280;20229;49.856;19.030;2023-04-28T22:37:25;101382.56;;;12.35;53.44
33949;BME280;20229;49.856;19.030;2023-04-28T22:42:40;101385.30;;;12.35;53.66
33949;BME280;20229;49.856;19.030;2023-04-28T22:47:55;101386.03;;;12.39;53.69
33949;BME280;20229;49.856;19.030;2023-04-28T22:53:09;101390.47;;;12.41;54.00
33949;BME280;20229;49.856;19.030;2023-04-28T22:58:23;101395.94;;;12.41;54.75
33949;BME280;20229;49.856;19.030;2023-04-28T23:03:37;101387.01;;;12.38;54.24
33949;BME280;20229;49.856;19.030;2023-04-28T23:08:52;101394.24;;;12.39;55.08
33949;BME280;20229;49.856;19.030;2023-04-28T23:14:06;101378.85;;;12.36;55.85
33949;BME280;20229;49.856;19.030;2023-04-28T23:19:20;101377.91;;;12.37;55.14
33949;BME280;20229;49.856;19.030;2023-04-28T23:24:35;101382.41;;;12.38;55.57
33949;BME280;20229;49.856;19.030;2023-04-28T23:29:51;101362.99;;;12.43;55.40
33949;BME280;20229;49.856;19.030;2023-04-28T23:35:06;101357.60;;;12.41;55.49
33949;BME280;20229;49.856;19.030;2023-04-28T23:40:20;101352.91;;;12.43;55.38
33949;BME280;20229;49.856;19.030;2023-04-28T23:45:34;101346.65;;;12.41;56.00
33949;BME280;20229;49.856;19.030;2023-04-28T23:50:48;101340.36;;;12.39;56.56
33949;BME280;20229;49.856;19.030;2023-04-28T23:56:03;101344.89;;;12.40;56.05
